Terminal Aerodrome Forecast
Issued by NWS Bismarck, ND

Home | Current Version | Previous Version | Text Only | Print | Product List | Glossary On
Versions: 1 2 3 4 5 6 7 8 9 10 11 12 13 14 15 16 17 18 19 20 21
000
FTUS43 KBIS 181900 AAC
TAFISN
TAF AMD
KISN 181957Z 1820/1918 30018G26KT P6SM VCSH BKN080
      TEMPO 1820/1823 5SM -SHRA BKN060
     FM190000 33021G30KT P6SM BKN080
     FM190500 31014KT P6SM SCT110
     FM191200 31017G29KT P6SM VCSH BKN040=

USA.gov is the U.S. government's official web portal to all federal, state and local government web resources and services.